Time,TemperatureF,DewpointF,PressureIn,WindDirection,WindDirectionDegrees,WindSpeedMPH,WindSpeedGustMPH,Humidity,HourlyPrecipIn,Conditions,Clouds,dailyrainin,SoftwareType,DateUTC
2013-04-19 00:05:00,51.8,39.6,30.18,NE,49,1.0,2.0,63,0.00,,,0.00,Wunderground v.1.15,2013-04-19 07:05:00,
2013-04-19 00:15:00,51.7,39.5,30.18,NE,49,1.0,2.0,63,0.00,,,0.00,Wunderground v.1.15,2013-04-19 07:15:00,
2013-04-19 00:25:00,51.7,39.1,30.18,NE,49,0.0,1.0,62,0.00,,,0.00,Wunderground v.1.15,2013-04-19 07:25:00,
2013-04-19 00:30:00,51.7,38.7,30.18,NE,49,0.0,0.0,61,0.00,,,0.00,Wunderground v.1.15,2013-04-19 07:30:00,
2013-04-19 00:35:00,51.7,38.3,30.18,NE,49,0.0,0.0,60,0.00,,,0.00,Wunderground v.1.15,2013-04-19 07:35:00,
2013-04-19 00:45:00,51.4,38.0,30.18,NE,49,0.0,0.0,60,0.00,,,0.00,Wunderground v.1.15,2013-04-19 07:45:00,
2013-04-19 00:55:00,51.1,38.1,30.18,NE,49,0.0,0.0,61,0.00,,,0.00,Wunderground v.1.15,2013-04-19 07:55:00,
2013-04-19 01:05:00,50.7,38.1,30.18,NE,49,0.0,3.0,62,0.00,,,0.00,Wunderground v.1.15,2013-04-19 08:05:00,
2013-04-19 01:15:00,50.4,38.3,30.18,NE,49,0.0,3.0,63,0.00,,,0.00,Wunderground v.1.15,2013-04-19 08:15:00,
2013-04-19 01:25:00,50.2,38.1,30.17,NE,49,0.0,3.0,63,0.00,,,0.00,Wunderground v.1.15,2013-04-19 08:25:00,
2013-04-19 01:35:00,50.2,38.1,30.18,NE,49,0.0,3.0,63,0.00,,,0.00,Wunderground v.1.15,2013-04-19 08:35:00,
2013-04-19 01:40:00,50.2,38.1,30.17,NE,49,0.0,3.0,63,0.00,,,0.00,Wunderground v.1.15,2013-04-19 08:40:00,
2013-04-19 01:45:00,50.2,38.5,30.17,NE,49,0.0,3.0,64,0.00,,,0.00,Wunderground v.1.15,2013-04-19 08:45:00,
2013-04-19 01:55:00,50.1,38.4,30.17,NE,49,0.0,3.0,64,0.00,,,0.00,Wunderground v.1.15,2013-04-19 08:55:00,
2013-04-19 02:05:00,50.0,38.3,30.17,NE,49,0.0,3.0,64,0.00,,,0.00,Wunderground v.1.15,2013-04-19 09:05:00,
2013-04-19 02:15:00,50.1,38.4,30.17,ENE,57,0.0,3.0,64,0.00,,,0.00,Wunderground v.1.15,2013-04-19 09:15:00,
2013-04-19 02:25:00,50.1,38.4,30.17,ENE,57,0.0,3.0,64,0.00,,,0.00,Wunderground v.1.15,2013-04-19 09:25:00,
2013-04-19 02:35:00,50.0,38.3,30.16,ENE,57,0.0,3.0,64,0.00,,,0.00,Wunderground v.1.15,2013-04-19 09:35:00,
2013-04-19 02:45:00,49.9,38.2,30.16,ENE,57,1.0,3.0,64,0.00,,,0.00,Wunderground v.1.15,2013-04-19 09:45:00,
2013-04-19 02:55:00,49.9,37.8,30.16,ENE,57,0.0,3.0,63,0.00,,,0.00,Wunderground v.1.15,2013-04-19 09:55:00,
2013-04-19 03:05:00,49.9,37.4,30.16,ENE,57,0.0,3.0,62,0.00,,,0.00,Wunderground v.1.15,2013-04-19 10:05:00,
2013-04-19 03:15:00,49.9,38.2,30.17,ENE,57,0.0,3.0,64,0.00,,,0.00,Wunderground v.1.15,2013-04-19 10:15:00,
2013-04-19 03:25:00,49.7,37.6,30.17,ENE,57,1.0,3.0,63,0.00,,,0.00,Wunderground v.1.15,2013-04-19 10:25:00,
2013-04-19 03:35:00,49.7,37.2,30.16,ENE,57,1.0,3.0,62,0.00,,,0.00,Wunderground v.1.15,2013-04-19 10:35:00,
2013-04-19 03:45:00,49.9,37.0,30.16,ENE,57,1.0,3.0,61,0.00,,,0.00,Wunderground v.1.15,2013-04-19 10:45:00,
2013-04-19 03:55:00,50.1,37.6,30.16,ENE,57,1.0,3.0,62,0.00,,,0.00,Wunderground v.1.15,2013-04-19 10:55:00,
2013-04-19 04:05:00,50.0,37.5,30.17,ENE,57,0.0,3.0,62,0.00,,,0.00,Wunderground v.1.15,2013-04-19 11:05:00,
2013-04-19 04:15:00,49.6,37.1,30.17,ENE,57,0.0,3.0,62,0.00,,,0.00,Wunderground v.1.15,2013-04-19 11:15:00,
2013-04-19 04:25:00,49.3,37.2,30.17,ENE,57,0.0,3.0,63,0.00,,,0.00,Wunderground v.1.15,2013-04-19 11:25:00,
2013-04-19 04:35:00,48.9,37.6,30.17,ENE,57,0.0,3.0,65,0.00,,,0.00,Wunderground v.1.15,2013-04-19 11:35:00,
2013-04-19 04:40:00,48.8,37.9,30.17,ENE,57,0.0,3.0,66,0.00,,,0.00,Wunderground v.1.15,2013-04-19 11:40:00,
2013-04-19 04:50:00,48.5,38.0,30.17,ENE,57,0.0,3.0,67,0.00,,,0.00,Wunderground v.1.15,2013-04-19 11:50:00,
2013-04-19 05:00:00,48.2,38.5,30.17,ENE,57,0.0,3.0,69,0.00,,,0.00,Wunderground v.1.15,2013-04-19 12:00:00,
2013-04-19 05:05:00,48.1,38.8,30.17,ENE,57,0.0,3.0,70,0.00,,,0.00,Wunderground v.1.15,2013-04-19 12:05:00,
2013-04-19 05:10:00,47.9,38.9,30.18,ENE,57,0.0,3.0,71,0.00,,,0.00,Wunderground v.1.15,2013-04-19 12:10:00,
2013-04-19 05:15:00,47.8,38.8,30.18,ENE,57,0.0,3.0,71,0.00,,,0.00,Wunderground v.1.15,2013-04-19 12:15:00,
2013-04-19 05:25:00,47.5,39.3,30.18,ENE,57,0.0,3.0,73,0.00,,,0.00,Wunderground v.1.15,2013-04-19 12:25:00,
2013-04-19 05:35:00,47.2,39.3,30.17,ENE,57,0.0,3.0,74,0.00,,,0.00,Wunderground v.1.15,2013-04-19 12:35:00,
2013-04-19 05:45:00,47.1,39.2,30.18,ENE,57,0.0,3.0,74,0.00,,,0.00,Wunderground v.1.15,2013-04-19 12:45:00,
2013-04-19 05:55:00,47.0,39.5,30.18,ENE,57,0.0,3.0,75,0.00,,,0.00,Wunderground v.1.15,2013-04-19 12:55:00,
2013-04-19 06:00:00,47.0,39.8,30.18,ENE,57,0.0,3.0,76,0.00,,,0.00,Wunderground v.1.15,2013-04-19 13:00:00,
2013-04-19 06:10:00,47.0,40.2,30.18,ENE,57,0.0,3.0,77,0.00,,,0.00,Wunderground v.1.15,2013-04-19 13:10:00,
2013-04-19 06:20:00,47.0,40.5,30.18,ENE,57,0.0,3.0,78,0.00,,,0.00,Wunderground v.1.15,2013-04-19 13:20:00,
2013-04-19 06:30:00,47.2,40.7,30.19,ENE,57,0.0,3.0,78,0.00,,,0.00,Wunderground v.1.15,2013-04-19 13:30:00,
2013-04-19 06:35:00,47.2,40.7,30.19,ENE,57,0.0,3.0,78,0.00,,,0.00,Wunderground v.1.15,2013-04-19 13:35:00,
2013-04-19 06:45:00,47.1,40.6,30.19,ENE,57,0.0,3.0,78,0.00,,,0.00,Wunderground v.1.15,2013-04-19 13:45:00,
2013-04-19 06:55:00,47.1,40.9,30.19,ENE,57,0.0,3.0,79,0.00,,,0.00,Wunderground v.1.15,2013-04-19 13:55:00,
2013-04-19 07:05:00,47.1,40.9,30.19,ENE,57,0.0,3.0,79,0.00,,,0.00,Wunderground v.1.15,2013-04-19 14:05:00,
2013-04-19 07:15:00,47.1,40.6,30.19,ENE,57,0.0,3.0,78,0.00,,,0.00,Wunderground v.1.15,2013-04-19 14:15:00,
2013-04-19 07:25:00,47.8,40.6,30.19,NE,44,2.0,3.0,76,0.00,,,0.00,Wunderground v.1.15,2013-04-19 14:25:00,
2013-04-19 07:30:00,48.6,41.0,30.19,NE,39,2.0,3.0,75,0.00,,,0.00,Wunderground v.1.15,2013-04-19 14:30:00,
2013-04-19 07:35:00,49.5,41.9,30.19,NE,46,2.0,3.0,75,0.00,,,0.00,Wunderground v.1.15,2013-04-19 14:35:00,
2013-04-19 07:45:00,51.0,43.0,30.20,NE,46,2.0,3.0,74,0.00,,,0.00,Wunderground v.1.15,2013-04-19 14:45:00,
2013-04-19 07:55:00,52.3,43.9,30.20,NE,48,2.0,3.0,73,0.00,,,0.00,Wunderground v.1.15,2013-04-19 14:55:00,
2013-04-19 08:00:00,52.9,44.1,30.19,ENE,59,2.0,3.0,72,0.00,,,0.00,Wunderground v.1.15,2013-04-19 15:00:00,
2013-04-19 08:05:00,53.6,44.4,30.19,East,87,2.0,3.0,71,0.00,,,0.00,Wunderground v.1.15,2013-04-19 15:05:00,
2013-04-19 08:15:00,54.9,44.1,30.20,East,89,1.0,2.0,67,0.00,,,0.00,Wunderground v.1.15,2013-04-19 15:15:00,
2013-04-19 08:25:00,56.6,43.3,30.20,East,86,1.0,1.0,61,0.00,,,0.00,Wunderground v.1.15,2013-04-19 15:25:00,
2013-04-19 08:35:00,58.2,43.5,30.20,ENE,75,1.0,2.0,58,0.00,,,0.00,Wunderground v.1.15,2013-04-19 15:35:00,
2013-04-19 08:45:00,59.6,45.2,30.20,SE,129,0.0,0.0,59,0.00,,,0.00,Wunderground v.1.15,2013-04-19 15:45:00,
2013-04-19 08:55:00,61.3,45.5,30.20,ESE,122,0.0,0.0,56,0.00,,,0.00,Wunderground v.1.15,2013-04-19 15:55:00,
2013-04-19 09:05:00,62.9,47.0,30.20,South,184,1.0,3.0,56,0.00,,,0.00,Wunderground v.1.15,2013-04-19 16:05:00,
2013-04-19 09:15:00,63.9,46.9,30.19,South,189,1.0,3.0,54,0.00,,,0.00,Wunderground v.1.15,2013-04-19 16:15:00,
2013-04-19 09:25:00,65.2,47.1,30.19,South,188,1.0,3.0,52,0.00,,,0.00,Wunderground v.1.15,2013-04-19 16:25:00,
2013-04-19 09:35:00,66.6,44.0,30.20,SSE,167,1.0,3.0,44,0.00,,,0.00,Wunderground v.1.15,2013-04-19 16:35:00,
2013-04-19 09:45:00,67.9,41.3,30.20,South,185,1.0,3.0,38,0.00,,,0.00,Wunderground v.1.15,2013-04-19 16:45:00,
2013-04-19 09:55:00,68.9,46.7,30.20,SW,217,1.0,2.0,45,0.00,,,0.00,Wunderground v.1.15,2013-04-19 16:55:00,
2013-04-19 10:05:00,69.3,45.2,30.19,East,84,1.0,3.0,42,0.00,,,0.00,Wunderground v.1.15,2013-04-19 17:05:00,
2013-04-19 10:15:00,69.9,46.4,30.20,WSW,255,1.0,3.0,43,0.00,,,0.00,Wunderground v.1.15,2013-04-19 17:15:00,
2013-04-19 10:25:00,68.8,45.4,30.20,WSW,240,2.0,4.0,43,0.00,,,0.00,Wunderground v.1.15,2013-04-19 17:25:00,
2013-04-19 10:30:00,68.1,44.7,30.20,SW,234,3.0,3.0,43,0.00,,,0.00,Wunderground v.1.15,2013-04-19 17:30:00,
2013-04-19 10:40:00,68.0,45.3,30.19,SSW,196,4.0,4.0,44,0.00,,,0.00,Wunderground v.1.15,2013-04-19 17:40:00,
2013-04-19 10:50:00,68.5,45.1,30.19,WSW,245,1.0,3.0,43,0.00,,,0.00,Wunderground v.1.15,2013-04-19 17:50:00,
2013-04-19 11:00:00,69.2,45.1,30.19,SW,226,2.0,3.0,42,0.00,,,0.00,Wunderground v.1.15,2013-04-19 18:00:00,
2013-04-19 11:05:00,69.8,45.7,30.19,South,171,2.0,3.0,42,0.00,,,0.00,Wunderground v.1.15,2013-04-19 18:05:00,
2013-04-19 11:15:00,70.8,45.3,30.19,SW,221,3.0,5.0,40,0.00,,,0.00,Wunderground v.1.15,2013-04-19 18:15:00,
2013-04-19 11:25:00,71.0,46.7,30.19,SW,233,3.0,6.0,42,0.00,,,0.00,Wunderground v.1.15,2013-04-19 18:25:00,
2013-04-19 11:35:00,71.1,47.5,30.19,SW,226,3.0,5.0,43,0.00,,,0.00,Wunderground v.1.15,2013-04-19 18:35:00,
2013-04-19 11:45:00,72.0,48.3,30.19,WSW,243,5.0,5.0,43,0.00,,,0.00,Wunderground v.1.15,2013-04-19 18:45:00,
2013-04-19 11:55:00,72.8,50.2,30.18,SSW,193,4.0,6.0,45,0.00,,,0.00,Wunderground v.1.15,2013-04-19 18:55:00,
2013-04-19 12:05:00,72.5,50.5,30.18,WSW,250,4.0,4.0,46,0.00,,,0.00,Wunderground v.1.15,2013-04-19 19:05:00,
2013-04-19 12:15:00,73.3,51.3,30.18,SW,217,3.0,6.0,46,0.00,,,0.00,Wunderground v.1.15,2013-04-19 19:15:00,
2013-04-19 12:25:00,74.2,52.1,30.17,South,189,4.0,4.0,46,0.00,,,0.00,Wunderground v.1.15,2013-04-19 19:25:00,
2013-04-19 12:35:00,75.5,51.4,30.17,South,188,3.0,4.0,43,0.00,,,0.00,Wunderground v.1.15,2013-04-19 19:35:00,
2013-04-19 12:45:00,75.9,50.5,30.17,South,179,4.0,5.0,41,0.00,,,0.00,Wunderground v.1.15,2013-04-19 19:45:00,
2013-04-19 12:55:00,75.8,50.4,30.16,South,183,4.0,7.0,41,0.00,,,0.00,Wunderground v.1.15,2013-04-19 19:55:00,
2013-04-19 13:00:00,75.7,50.3,30.16,SSW,192,4.0,4.0,41,0.00,,,0.00,Wunderground v.1.15,2013-04-19 20:00:00,
2013-04-19 13:05:00,76.1,50.0,30.16,SW,221,4.0,7.0,40,0.00,,,0.00,Wunderground v.1.15,2013-04-19 20:05:00,
2013-04-19 13:15:00,76.6,49.1,30.15,SW,231,5.0,7.0,38,0.00,,,0.00,Wunderground v.1.15,2013-04-19 20:15:00,
2013-04-19 13:25:00,76.4,48.9,30.15,WSW,250,5.0,7.0,38,0.00,,,0.00,Wunderground v.1.15,2013-04-19 20:25:00,
2013-04-19 13:35:00,76.1,48.6,30.15,WSW,237,7.0,11.0,38,0.00,,,0.00,Wunderground v.1.15,2013-04-19 20:35:00,
2013-04-19 13:40:00,75.7,49.0,30.14,SSW,210,6.0,7.0,39,0.00,,,0.00,Wunderground v.1.15,2013-04-19 20:40:00,
2013-04-19 13:50:00,75.7,47.6,30.14,SW,215,6.0,6.0,37,0.00,,,0.00,Wunderground v.1.15,2013-04-19 20:50:00,
2013-04-19 14:00:00,75.6,46.8,30.14,SSW,193,6.0,7.0,36,0.00,,,0.00,Wunderground v.1.15,2013-04-19 21:00:00,
2013-04-19 14:10:00,76.3,45.9,30.13,SSW,193,5.0,5.0,34,0.00,,,0.00,Wunderground v.1.15,2013-04-19 21:10:00,
2013-04-19 14:20:00,76.9,45.6,30.13,WSW,257,6.0,6.0,33,0.00,,,0.00,Wunderground v.1.15,2013-04-19 21:20:00,
2013-04-19 14:30:00,78.1,46.6,30.13,SW,219,5.0,7.0,33,0.00,,,0.00,Wunderground v.1.15,2013-04-19 21:30:00,
2013-04-19 14:40:00,78.0,46.6,30.12,SW,233,6.0,7.0,33,0.00,,,0.00,Wunderground v.1.15,2013-04-19 21:40:00,
2013-04-19 14:50:00,77.8,46.4,30.12,SW,221,7.0,9.0,33,0.00,,,0.00,Wunderground v.1.15,2013-04-19 21:50:00,
2013-04-19 15:00:00,77.8,46.4,30.12,WSW,244,7.0,7.0,33,0.00,,,0.00,Wunderground v.1.15,2013-04-19 22:00:00,
2013-04-19 15:05:00,77.6,47.8,30.11,WSW,243,7.0,7.0,35,0.00,,,0.00,Wunderground v.1.15,2013-04-19 22:05:00,
2013-04-19 15:15:00,77.5,46.9,30.11,SW,226,8.0,9.0,34,0.00,,,0.00,Wunderground v.1.15,2013-04-19 22:15:00,
2013-04-19 15:25:00,76.6,49.8,30.11,SW,215,8.0,8.0,39,0.00,,,0.00,Wunderground v.1.15,2013-04-19 22:25:00,
2013-04-19 15:35:00,76.6,50.5,30.10,SSW,193,7.0,8.0,40,0.00,,,0.00,Wunderground v.1.15,2013-04-19 22:35:00,
2013-04-19 15:40:00,76.9,50.7,30.10,West,259,7.0,7.0,40,0.00,,,0.00,Wunderground v.1.15,2013-04-19 22:40:00,
2013-04-19 15:50:00,77.6,50.0,30.09,WSW,241,5.0,7.0,38,0.00,,,0.00,Wunderground v.1.15,2013-04-19 22:50:00,
2013-04-19 16:00:00,77.1,49.5,30.09,WSW,245,7.0,8.0,38,0.00,,,0.00,Wunderground v.1.15,2013-04-19 23:00:00,
2013-04-19 16:10:00,75.0,48.4,30.10,SW,222,9.0,9.0,39,0.00,,,0.00,Wunderground v.1.15,2013-04-19 23:10:00,
2013-04-19 16:20:00,74.0,47.5,30.09,WSW,246,7.0,7.0,39,0.00,,,0.00,Wunderground v.1.15,2013-04-19 23:20:00,
2013-04-19 16:30:00,73.0,49.2,30.09,WSW,245,9.0,9.0,43,0.00,,,0.00,Wunderground v.1.15,2013-04-19 23:30:00,
2013-04-19 16:40:00,72.5,50.5,30.09,WSW,245,8.0,10.0,46,0.00,,,0.00,Wunderground v.1.15,2013-04-19 23:40:00,
2013-04-19 16:50:00,71.6,50.3,30.09,WSW,245,8.0,8.0,47,0.00,,,0.00,Wunderground v.1.15,2013-04-19 23:50:00,
2013-04-19 17:00:00,71.9,51.1,30.09,SW,215,7.0,7.0,48,0.00,,,0.00,Wunderground v.1.15,2013-04-20 00:00:00,
2013-04-19 17:10:00,72.1,51.3,30.08,SSW,196,5.0,12.0,48,0.00,,,0.00,Wunderground v.1.15,2013-04-20 00:10:00,
2013-04-19 17:20:00,73.0,51.0,30.08,WSW,240,3.0,12.0,46,0.00,,,0.00,Wunderground v.1.15,2013-04-20 00:20:00,
2013-04-19 17:30:00,72.8,50.8,30.08,SW,231,5.0,12.0,46,0.00,,,0.00,Wunderground v.1.15,2013-04-20 00:30:00,
2013-04-19 17:40:00,71.8,51.0,30.07,SW,225,4.0,12.0,48,0.00,,,0.00,Wunderground v.1.15,2013-04-20 00:40:00,
2013-04-19 17:50:00,71.4,52.3,30.07,SW,220,5.0,12.0,51,0.00,,,0.00,Wunderground v.1.15,2013-04-20 00:50:00,
2013-04-19 18:00:00,71.9,52.2,30.07,SSE,161,2.0,2.0,50,0.00,,,0.00,Wunderground v.1.15,2013-04-20 01:00:00,
2013-04-19 18:10:00,71.2,51.6,30.07,WSW,246,4.0,12.0,50,0.00,,,0.00,Wunderground v.1.15,2013-04-20 01:10:00,
2013-04-19 18:20:00,69.7,51.8,30.07,SW,230,4.0,12.0,53,0.00,,,0.00,Wunderground v.1.15,2013-04-20 01:20:00,
2013-04-19 18:30:00,68.9,52.6,30.07,WSW,245,5.0,5.0,56,0.00,,,0.00,Wunderground v.1.15,2013-04-20 01:30:00,
2013-04-19 18:35:00,67.8,52.0,30.06,WSW,247,4.0,12.0,57,0.00,,,0.00,Wunderground v.1.15,2013-04-20 01:35:00,
2013-04-19 18:45:00,66.2,51.9,30.06,SSW,203,4.0,12.0,60,0.00,,,0.00,Wunderground v.1.15,2013-04-20 01:45:00,
2013-04-19 18:50:00,66.1,51.8,30.06,SW,226,4.0,4.0,60,0.00,,,0.00,Wunderground v.1.15,2013-04-20 01:50:00,
2013-04-19 18:55:00,65.6,51.3,30.06,SW,225,3.0,12.0,60,0.00,,,0.00,Wunderground v.1.15,2013-04-20 01:55:00,
2013-04-19 19:05:00,65.2,51.8,30.06,SW,229,3.0,3.0,62,0.00,,,0.00,Wunderground v.1.15,2013-04-20 02:05:00,
2013-04-19 19:15:00,64.2,51.3,30.06,WSW,255,2.0,4.0,63,0.00,,,0.00,Wunderground v.1.15,2013-04-20 02:15:00,
2013-04-19 19:25:00,63.3,51.3,30.06,SSW,213,2.0,3.0,65,0.00,,,0.00,Wunderground v.1.15,2013-04-20 02:25:00,
2013-04-19 19:35:00,62.7,50.8,30.05,SSW,213,1.0,1.0,65,0.00,,,0.00,Wunderground v.1.15,2013-04-20 02:35:00,
2013-04-19 19:40:00,62.4,50.5,30.05,SW,214,0.0,0.0,65,0.00,,,0.00,Wunderground v.1.15,2013-04-20 02:40:00,
2013-04-19 19:50:00,61.8,51.1,30.05,SW,214,1.0,1.0,68,0.00,,,0.00,Wunderground v.1.15,2013-04-20 02:50:00,
2013-04-19 20:00:00,61.2,50.9,30.05,SSW,213,0.0,4.0,69,0.00,,,0.00,Wunderground v.1.15,2013-04-20 03:00:00,
2013-04-19 20:10:00,60.3,50.9,30.05,SSW,198,0.0,4.0,71,0.00,,,0.00,Wunderground v.1.15,2013-04-20 03:10:00,
2013-04-19 20:15:00,59.9,50.8,30.05,SSW,198,0.0,4.0,72,0.00,,,0.00,Wunderground v.1.15,2013-04-20 03:15:00,
2013-04-19 20:25:00,59.1,50.5,30.05,SSW,198,0.0,4.0,73,0.00,,,0.00,Wunderground v.1.15,2013-04-20 03:25:00,
2013-04-19 20:35:00,58.5,50.2,30.05,SSW,198,0.0,4.0,74,0.00,,,0.00,Wunderground v.1.15,2013-04-20 03:35:00,
2013-04-19 20:45:00,58.1,50.6,30.05,East,93,0.0,4.0,76,0.00,,,0.00,Wunderground v.1.15,2013-04-20 03:45:00,
2013-04-19 20:55:00,57.8,50.3,30.05,East,93,0.0,4.0,76,0.00,,,0.00,Wunderground v.1.15,2013-04-20 03:55:00,
2013-04-19 21:05:00,57.3,50.1,30.06,East,94,0.0,4.0,77,0.00,,,0.00,Wunderground v.1.15,2013-04-20 04:05:00,
2013-04-19 21:10:00,57.1,50.3,30.06,ENE,71,1.0,1.0,78,0.00,,,0.00,Wunderground v.1.15,2013-04-20 04:10:00,
2013-04-19 21:20:00,57.0,50.5,30.06,ENE,65,1.0,1.0,79,0.00,,,0.00,Wunderground v.1.15,2013-04-20 04:20:00,
2013-04-19 21:30:00,56.8,50.4,30.06,ENE,70,0.0,4.0,79,0.00,,,0.00,Wunderground v.1.15,2013-04-20 04:30:00,
2013-04-19 21:35:00,56.7,50.6,30.06,ENE,69,1.0,4.0,80,0.00,,,0.00,Wunderground v.1.15,2013-04-20 04:35:00,
2013-04-19 21:40:00,56.7,50.6,30.06,ENE,72,1.0,4.0,80,0.00,,,0.00,Wunderground v.1.15,2013-04-20 04:40:00,
2013-04-19 21:45:00,56.7,50.6,30.06,ENE,61,1.0,4.0,80,0.00,,,0.00,Wunderground v.1.15,2013-04-20 04:45:00,
2013-04-19 21:55:00,56.7,50.6,30.06,ENE,72,2.0,4.0,80,0.00,,,0.00,Wunderground v.1.15,2013-04-20 04:55:00,
2013-04-19 22:00:00,56.7,50.6,30.06,ENE,63,1.0,1.0,80,0.00,,,0.00,Wunderground v.1.15,2013-04-20 05:00:00,
2013-04-19 22:05:00,56.6,50.2,30.06,East,89,1.0,1.0,79,0.00,,,0.00,Wunderground v.1.15,2013-04-20 05:05:00,
2013-04-19 22:10:00,56.6,49.8,30.06,East,89,1.0,1.0,78,0.00,,,0.00,Wunderground v.1.15,2013-04-20 05:10:00,
2013-04-19 22:20:00,56.2,49.4,30.06,East,89,0.0,2.0,78,0.00,,,0.00,Wunderground v.1.15,2013-04-20 05:20:00,
2013-04-19 22:25:00,55.8,49.0,30.06,NE,50,0.0,2.0,78,0.00,,,0.00,Wunderground v.1.15,2013-04-20 05:25:00,
2013-04-19 22:30:00,55.5,49.1,30.06,NE,50,0.0,0.0,79,0.00,,,0.00,Wunderground v.1.15,2013-04-20 05:30:00,
2013-04-19 22:35:00,55.3,48.9,30.06,NE,50,0.0,0.0,79,0.00,,,0.00,Wunderground v.1.15,2013-04-20 05:35:00,
2013-04-19 22:40:00,55.1,48.7,30.06,ENE,61,0.0,0.0,79,0.00,,,0.00,Wunderground v.1.15,2013-04-20 05:40:00,
2013-04-19 22:50:00,54.7,48.6,30.06,ENE,65,0.0,0.0,80,0.00,,,0.00,Wunderground v.1.15,2013-04-20 05:50:00,
2013-04-19 23:00:00,54.7,48.6,30.06,ENE,70,0.0,4.0,80,0.00,,,0.00,Wunderground v.1.15,2013-04-20 06:00:00,
2013-04-19 23:10:00,54.4,48.4,30.06,ENE,71,0.0,4.0,80,0.00,,,0.00,Wunderground v.1.15,2013-04-20 06:10:00,
2013-04-19 23:15:00,54.5,48.8,30.06,East,79,1.0,4.0,81,0.00,,,0.00,Wunderground v.1.15,2013-04-20 06:15:00,
2013-04-19 23:25:00,54.7,49.6,30.06,East,89,1.0,4.0,83,0.00,,,0.00,Wunderground v.1.15,2013-04-20 06:25:00,
2013-04-19 23:35:00,54.7,49.6,30.06,ENE,64,0.0,4.0,83,0.00,,,0.00,Wunderground v.1.15,2013-04-20 06:35:00,
2013-04-19 23:45:00,54.6,49.9,30.06,ENE,72,1.0,4.0,84,0.00,,,0.00,Wunderground v.1.15,2013-04-20 06:45:00,
2013-04-19 23:50:00,54.6,49.9,30.06,ENE,62,1.0,4.0,84,0.00,,,0.00,Wunderground v.1.15,2013-04-20 06:50:00,